Madawaska, ME (04756)

10:16 AM EDT on August 31, 2016 (GMT -0400)
W1AYX | | Change Station

Elev 545 ft 47.35 °N, 68.28 °W | Updated 52 seconds ago

Overcast
Overcast
68.0 °F
Feels Like 68.0 °F
N
0.0
Wind Variable Wind from ENE
Gusts 0.0 mph

Today
High -- | Low -- °F
--% Chance of Precip.
Yesterday
High -- | Low -- °F
Precip. -- in
Pressure 29.82 in
Visibility 10.0 miles
Clouds Overcast 1200 ft
Dew Point 61 °F
Humidity 78%
Rainfall 0.00 in
Snow Depth Not available.
5:51 AM 7:14 PM
Waning Crescent, 1% visible
METAR KFVE 311353Z AUTO VRB06KT 10SM OVC012 19/15 A2983 RMK AO2 SLP098 T01890150
Pressure 29.82 in
Visibility 10.0 miles
Clouds Overcast 1200 ft
Dew Point 61 °F
Humidity 78%
Rainfall 0.00 in
Snow Depth Not available.
5:51 AM 7:14 PM
Waning Crescent, 1% visible
METAR KFVE 311353Z AUTO VRB06KT 10SM OVC012 19/15 A2983 RMK AO2 SLP098 T01890150

10-Day Weather Forecast

Almanac

Astronomy

Aug. 31, 2016 Rise Set
Actual Time
Civil Twilight
Nautical Twilight
Astronomical Twilight
Moon
Length of Visible Light
Length of Day
Tomorrow will be .
, % of the Moon is Illuminated

Today's Extremes

State Highs State Lows

Community

WunderPhotos

Upload Photos

1,936,087 photos uploaded!

WunderBlog® & News

Nearby

Air Quality

  Air Quality AQ Index Pollutant
Not available.

Snow Depth

Station Depth Elevation

Earthquake Activity

City Distance Mag. Time & Date
Minimum magnitude displayed is 2.5.

Coastal Water Temperatures

Place Temperature

Stations

Nearby Weather Stations

Station Location Temp. Windchill Dew Point Humidity Wind Precip. Elev Updated Type
                   

Watches & Warnings

There are currently no watches in effect.